createdAt,value
2018-01-19T00:00:12.120Z,2.85
2018-01-19T00:01:17.946Z,2.15
2018-01-19T00:02:23.692Z,2.15
2018-01-19T00:03:29.095Z,2.35
2018-01-19T00:04:36.007Z,1.27
2018-01-19T00:05:42.136Z,3.65
2018-01-19T00:06:48.683Z,1.60
2018-01-19T00:07:55.265Z,2.05
2018-01-19T00:09:01.161Z,1.40
2018-01-19T00:10:06.895Z,1.48
2018-01-19T00:11:12.633Z,1.60
2018-01-19T00:12:18.386Z,2.47
2018-01-19T00:13:24.103Z,1.50
2018-01-19T00:14:29.912Z,1.73
2018-01-19T00:15:35.642Z,1.30
2018-01-19T00:16:42.207Z,1.70
2018-01-19T00:17:48.531Z,1.95
2018-01-19T00:18:54.253Z,1.80
2018-01-19T00:19:59.974Z,1.90
2018-01-19T00:21:05.703Z,1.40
2018-01-19T00:22:11.443Z,2.53
2018-01-19T00:23:20.033Z,2.15
2018-01-19T00:24:26.537Z,2.50
2018-01-19T00:25:32.275Z,2.20
2018-01-19T00:26:38.187Z,2.42
2018-01-19T00:27:44.027Z,2.33
2018-01-19T00:28:49.794Z,2.33
2018-01-19T00:29:55.508Z,1.80
2018-01-19T00:31:02.011Z,1.83
2018-01-19T00:32:07.576Z,1.85
2018-01-19T00:33:13.318Z,1.80
2018-01-19T00:34:19.072Z,2.17
2018-01-19T00:35:25.558Z,1.77
2018-01-19T00:36:31.515Z,1.87
2018-01-19T00:37:37.233Z,2.40
2018-01-19T00:38:42.975Z,1.92
2018-01-19T00:39:49.498Z,3.05
2018-01-19T00:40:55.219Z,2.42
2018-01-19T00:42:00.938Z,2.10
2018-01-19T00:43:06.688Z,2.35
2018-01-19T00:44:12.430Z,2.00
2018-01-19T00:45:18.190Z,2.95
2018-01-19T00:46:23.905Z,2.25
2018-01-19T00:47:29.644Z,2.70
2018-01-19T00:48:35.399Z,1.60
2018-01-19T00:49:41.136Z,1.50
2018-01-19T00:50:46.894Z,1.62
2018-01-19T00:51:52.623Z,2.70
2018-01-19T00:52:58.354Z,1.85
2018-01-19T00:54:04.064Z,3.00
2018-01-19T00:55:09.771Z,1.67
2018-01-19T00:56:15.534Z,1.87
2018-01-19T00:57:22.017Z,2.87
2018-01-19T00:58:27.415Z,1.83
2018-01-19T00:59:33.123Z,2.30
2018-01-19T01:00:38.839Z,2.25
2018-01-19T01:01:44.570Z,2.50
2018-01-19T01:02:50.287Z,1.90
2018-01-19T01:03:56.792Z,2.83
2018-01-19T01:05:02.568Z,2.20
2018-01-19T01:06:08.317Z,1.65
2018-01-19T01:07:15.567Z,3.10
2018-01-19T01:08:21.294Z,2.87
2018-01-19T01:09:27.046Z,2.00
2018-01-19T01:10:32.805Z,1.77
2018-01-19T01:11:38.531Z,1.77
2018-01-19T01:12:44.324Z,2.67
2018-01-19T01:13:50.825Z,2.47
2018-01-19T01:14:56.597Z,1.95
2018-01-19T01:16:03.842Z,2.42
2018-01-19T01:17:10.039Z,1.60
2018-01-19T01:18:15.880Z,3.58
2018-01-19T01:19:22.435Z,4.70
2018-01-19T01:20:28.349Z,1.80
2018-01-19T01:21:34.078Z,2.25
2018-01-19T01:22:39.817Z,1.42
2018-01-19T01:23:45.578Z,2.12
2018-01-19T01:24:51.662Z,2.08
2018-01-19T01:25:58.164Z,3.05
2018-01-19T01:27:03.913Z,2.55
2018-01-19T01:28:09.637Z,1.58
2018-01-19T01:29:15.390Z,1.85
2018-01-19T01:30:21.129Z,4.10
2018-01-19T01:31:26.859Z,5.12
2018-01-19T01:32:32.589Z,2.22
2018-01-19T01:33:38.304Z,2.20
2018-01-19T01:34:44.824Z,1.95
2018-01-19T01:35:50.969Z,4.20
2018-01-19T01:36:56.484Z,2.65
2018-01-19T01:38:02.235Z,2.55
2018-01-19T01:39:07.968Z,2.50
2018-01-19T01:40:13.726Z,1.90
2018-01-19T01:41:19.450Z,3.65
2018-01-19T01:42:25.202Z,2.42
2018-01-19T01:43:30.931Z,2.55
2018-01-19T01:44:36.669Z,2.20
2018-01-19T01:45:42.980Z,2.10
2018-01-19T01:46:48.714Z,3.47
2018-01-19T01:47:54.221Z,4.85
2018-01-19T01:49:11.824Z,2.97
2018-01-19T01:50:17.559Z,2.00
2018-01-19T01:51:23.339Z,2.20
2018-01-19T01:52:29.065Z,2.60
2018-01-19T01:53:34.791Z,1.98
2018-01-19T01:54:40.613Z,2.22
2018-01-19T01:55:46.348Z,2.45
2018-01-19T01:56:52.870Z,3.37
2018-01-19T01:57:58.610Z,1.87
2018-01-19T01:59:04.336Z,2.25
2018-01-19T02:00:10.066Z,2.67
2018-01-19T02:01:15.794Z,2.05
2018-01-19T02:02:21.524Z,1.90
2018-01-19T02:03:27.292Z,2.25
2018-01-19T02:04:33.016Z,2.30
2018-01-19T02:05:38.742Z,2.22
2018-01-19T02:06:44.471Z,2.12
2018-01-19T02:07:50.995Z,2.60
2018-01-19T02:08:56.705Z,3.90
2018-01-19T02:10:02.424Z,5.40
2018-01-19T02:11:08.163Z,2.60
2018-01-19T02:12:13.902Z,3.45
2018-01-19T02:13:20.432Z,2.33
2018-01-19T02:14:26.219Z,2.12
2018-01-19T02:15:31.943Z,3.53
2018-01-19T02:16:38.424Z,3.78
2018-01-19T02:17:44.150Z,1.60
2018-01-19T02:18:49.900Z,2.83
2018-01-19T02:19:55.632Z,2.33
2018-01-19T02:21:02.134Z,2.40
2018-01-19T02:22:07.859Z,2.22
2018-01-19T02:23:13.268Z,2.15
2018-01-19T02:24:19.033Z,2.47
2018-01-19T02:25:24.752Z,1.60
2018-01-19T02:26:30.481Z,2.42
2018-01-19T02:27:36.962Z,2.30
2018-01-19T02:28:42.747Z,2.17
2018-01-19T02:29:48.502Z,2.45
2018-01-19T02:30:54.231Z,2.67
2018-01-19T02:31:59.940Z,2.55
2018-01-19T02:33:05.671Z,2.85
2018-01-19T02:34:11.384Z,5.10
2018-01-19T02:35:17.920Z,3.78
2018-01-19T02:36:23.658Z,3.42
2018-01-19T02:37:30.869Z,3.15
2018-01-19T02:38:36.592Z,2.58
2018-01-19T02:39:43.091Z,3.12
2018-01-19T02:40:48.832Z,3.20
2018-01-19T02:41:54.677Z,4.25
2018-01-19T02:43:00.415Z,3.67
2018-01-19T02:44:06.146Z,3.40
2018-01-19T02:45:11.855Z,3.70
2018-01-19T02:46:18.366Z,3.60
2018-01-19T02:47:24.109Z,3.72
2018-01-19T02:48:29.820Z,3.03
2018-01-19T02:49:35.554Z,3.70
2018-01-19T02:50:41.284Z,3.35
2018-01-19T02:51:47.244Z,3.75
2018-01-19T02:52:52.960Z,3.87
2018-01-19T02:53:59.460Z,4.28
2018-01-19T02:55:05.214Z,5.72
2018-01-19T02:56:10.947Z,6.87
2018-01-19T02:57:16.696Z,6.18
2018-01-19T02:58:22.419Z,7.62
2018-01-19T02:59:28.123Z,5.72
2018-01-19T03:00:34.282Z,4.65
2018-01-19T03:01:40.778Z,6.07
2018-01-19T03:02:46.547Z,4.70
2018-01-19T03:03:52.255Z,5.65
2018-01-19T03:04:57.661Z,4.15
2018-01-19T03:06:04.196Z,5.90
2018-01-19T03:07:10.035Z,7.20
2018-01-19T03:08:15.789Z,7.82
2018-01-19T03:09:22.348Z,7.87
2018-01-19T03:10:28.085Z,5.93
2018-01-19T03:11:33.814Z,4.37
2018-01-19T03:12:39.574Z,5.35
2018-01-19T03:13:46.207Z,5.47
2018-01-19T03:14:51.928Z,4.10
2018-01-19T03:15:57.662Z,4.32
2018-01-19T03:17:03.402Z,4.70
2018-01-19T03:18:09.328Z,3.90
2018-01-19T03:19:15.166Z,4.97
2018-01-19T03:20:21.651Z,3.55
2018-01-19T03:21:27.464Z,4.82
2018-01-19T03:22:33.958Z,4.45
2018-01-19T03:23:39.799Z,4.93
2018-01-19T03:24:45.542Z,5.45
2018-01-19T03:25:51.351Z,4.07
2018-01-19T03:26:57.836Z,4.65
2018-01-19T03:28:03.551Z,3.53
2018-01-19T03:29:10.071Z,3.08
2018-01-19T03:30:15.833Z,4.05
2018-01-19T03:31:21.563Z,3.50
2018-01-19T03:32:27.333Z,5.65
2018-01-19T03:33:33.813Z,2.40
2018-01-19T03:34:39.546Z,2.62
2018-01-19T03:35:45.538Z,3.60
2018-01-19T03:36:51.269Z,2.25
2018-01-19T03:37:56.987Z,3.37
2018-01-19T03:39:02.628Z,2.80
2018-01-19T03:40:08.550Z,3.62
2018-01-19T03:41:14.302Z,3.20
2018-01-19T03:42:20.030Z,3.12
2018-01-19T03:43:25.764Z,3.87
2018-01-19T03:44:32.274Z,2.28
2018-01-19T03:45:38.015Z,3.03
2018-01-19T03:46:43.752Z,2.92
2018-01-19T03:47:49.467Z,2.55
2018-01-19T03:48:55.361Z,2.53
2018-01-19T03:50:02.508Z,3.00
2018-01-19T03:51:08.255Z,2.72
2018-01-19T03:52:14.011Z,2.40
2018-01-19T03:53:20.725Z,2.35
2018-01-19T03:54:26.449Z,1.85
2018-01-19T03:55:32.754Z,1.90
2018-01-19T03:56:38.460Z,2.15
2018-01-19T03:57:44.219Z,3.30
2018-01-19T03:58:49.771Z,2.47
2018-01-19T03:59:55.488Z,2.40
2018-01-19T04:01:01.294Z,2.25
2018-01-19T04:02:07.180Z,2.60
2018-01-19T04:03:12.954Z,2.53
2018-01-19T04:04:18.682Z,2.45
2018-01-19T04:05:24.396Z,2.60
2018-01-19T04:06:30.154Z,3.15
2018-01-19T04:07:35.889Z,4.28
2018-01-19T04:08:41.646Z,3.00
2018-01-19T04:09:47.355Z,2.78
2018-01-19T04:10:53.081Z,2.80
2018-01-19T04:11:59.016Z,3.10
2018-01-19T04:13:05.507Z,2.90
2018-01-19T04:14:11.266Z,2.70
2018-01-19T04:15:16.981Z,3.10
2018-01-19T04:16:22.699Z,3.15
2018-01-19T04:17:29.230Z,2.75
2018-01-19T04:18:34.938Z,2.40
2018-01-19T04:19:40.675Z,2.25
2018-01-19T04:20:46.408Z,2.20
2018-01-19T04:21:52.338Z,2.92
2018-01-19T04:22:58.898Z,2.90
2018-01-19T04:24:05.398Z,3.17
2018-01-19T04:25:11.136Z,2.90
2018-01-19T04:26:16.865Z,3.35
2018-01-19T04:27:22.570Z,2.33
2018-01-19T04:28:29.094Z,3.08
2018-01-19T04:29:35.010Z,2.80
2018-01-19T04:30:40.745Z,2.62
2018-01-19T04:31:46.452Z,2.70
2018-01-19T04:32:52.955Z,3.05
2018-01-19T04:33:58.664Z,2.45
2018-01-19T04:35:04.830Z,2.60
2018-01-19T04:36:10.660Z,3.17
2018-01-19T04:37:16.396Z,3.00
2018-01-19T04:38:22.960Z,3.15
2018-01-19T04:39:28.512Z,3.05
2018-01-19T04:40:34.036Z,2.90
2018-01-19T04:41:39.824Z,3.17
2018-01-19T04:42:45.383Z,2.60
2018-01-19T04:43:51.123Z,3.35
2018-01-19T04:44:57.616Z,3.03
2018-01-19T04:46:03.151Z,2.65
2018-01-19T04:47:08.714Z,3.20
2018-01-19T04:48:14.453Z,3.15
2018-01-19T04:49:20.195Z,3.60
2018-01-19T04:50:25.940Z,2.92
2018-01-19T04:51:31.687Z,3.45
2018-01-19T04:52:37.474Z,2.83
2018-01-19T04:53:43.995Z,4.35
2018-01-19T04:54:49.716Z,2.83
2018-01-19T04:55:55.440Z,3.55
2018-01-19T04:57:00.986Z,3.35
2018-01-19T04:58:06.595Z,2.78
2018-01-19T04:59:13.109Z,3.72
2018-01-19T05:00:19.126Z,2.85
2018-01-19T05:01:24.867Z,3.10
2018-01-19T05:02:30.650Z,2.62
2018-01-19T05:03:36.412Z,2.80
2018-01-19T05:04:42.152Z,2.90
2018-01-19T05:05:47.896Z,3.22
2018-01-19T05:06:53.611Z,3.90
2018-01-19T05:07:59.342Z,4.35
2018-01-19T05:09:04.190Z,4.07
2018-01-19T05:10:09.922Z,3.70
2018-01-19T05:11:15.648Z,2.90
2018-01-19T05:12:21.370Z,3.40
2018-01-19T05:13:27.106Z,3.65
2018-01-19T05:14:32.849Z,3.92
2018-01-19T05:15:38.588Z,3.03
2018-01-19T05:16:44.331Z,3.80
2018-01-19T05:17:50.048Z,5.20
2018-01-19T05:18:55.764Z,3.97
2018-01-19T05:20:01.500Z,3.00
2018-01-19T05:21:07.228Z,3.50
2018-01-19T05:22:12.958Z,3.15
2018-01-19T05:23:18.682Z,3.50
2018-01-19T05:24:24.390Z,3.42
2018-01-19T05:25:30.896Z,4.50
2018-01-19T05:26:36.621Z,3.03
2018-01-19T05:27:42.348Z,3.78
2018-01-19T05:28:48.078Z,3.50
2018-01-19T05:29:53.797Z,3.28
2018-01-19T05:31:00.439Z,3.85
2018-01-19T05:32:06.160Z,3.05
2018-01-19T05:33:11.890Z,3.65
2018-01-19T05:34:17.622Z,3.60
2018-01-19T05:35:23.366Z,3.25
2018-01-19T05:36:29.377Z,3.50
2018-01-19T05:37:35.933Z,3.22
2018-01-19T05:38:41.521Z,3.33
2018-01-19T05:39:47.272Z,2.62
2018-01-19T05:40:53.118Z,4.15
2018-01-19T05:41:58.893Z,3.20
2018-01-19T05:43:05.387Z,3.10
2018-01-19T05:44:11.125Z,3.17
2018-01-19T05:45:16.867Z,4.50
2018-01-19T05:46:22.671Z,3.35
2018-01-19T05:47:29.482Z,3.03
2018-01-19T05:48:35.213Z,3.50
2018-01-19T05:49:40.919Z,3.30
2018-01-19T05:50:47.567Z,3.60
2018-01-19T05:51:53.281Z,3.60
2018-01-19T05:52:59.088Z,3.70
2018-01-19T05:54:05.582Z,3.67
2018-01-19T05:55:11.315Z,2.95
2018-01-19T05:56:17.062Z,2.78
2018-01-19T05:57:22.799Z,3.37
2018-01-19T05:58:28.534Z,2.90
2018-01-19T05:59:35.012Z,2.80
2018-01-19T06:00:40.739Z,3.15
2018-01-19T06:01:46.524Z,3.80
2018-01-19T06:02:52.239Z,2.75
2018-01-19T06:03:58.242Z,2.67
2018-01-19T06:05:03.985Z,2.83
2018-01-19T06:06:09.708Z,3.40
2018-01-19T06:07:16.102Z,3.80
2018-01-19T06:08:21.859Z,3.47
2018-01-19T06:09:27.627Z,3.55
2018-01-19T06:10:33.061Z,3.70
2018-01-19T06:11:38.819Z,3.30
2018-01-19T06:12:45.355Z,2.75
2018-01-19T06:13:51.091Z,3.43
2018-01-19T06:14:56.854Z,2.92
2018-01-19T06:16:02.619Z,3.60
2018-01-19T06:17:08.337Z,3.67
2018-01-19T06:18:14.848Z,3.55
2018-01-19T06:19:20.646Z,3.20
2018-01-19T06:20:27.157Z,4.07
2018-01-19T06:21:33.070Z,3.53
2018-01-19T06:22:38.840Z,2.80
2018-01-19T06:23:44.577Z,3.03
2018-01-19T06:24:51.608Z,3.22
2018-01-19T06:25:57.414Z,3.37
2018-01-19T06:27:03.150Z,3.83
2018-01-19T06:28:08.880Z,3.12
2018-01-19T06:29:14.593Z,2.97
2018-01-19T06:30:20.330Z,3.20
2018-01-19T06:31:26.306Z,2.28
2018-01-19T06:32:32.046Z,2.90
2018-01-19T06:33:37.775Z,4.20
2018-01-19T06:34:43.498Z,3.45
2018-01-19T06:35:49.215Z,2.83
2018-01-19T06:36:54.959Z,2.72
2018-01-19T06:38:01.445Z,2.65
2018-01-19T06:39:06.831Z,2.65
2018-01-19T06:40:12.577Z,2.80
2018-01-19T06:41:18.315Z,2.20
2018-01-19T06:42:24.076Z,2.58
2018-01-19T06:43:30.567Z,2.87
2018-01-19T06:44:36.301Z,3.70
2018-01-19T06:45:42.017Z,3.28
2018-01-19T06:46:48.510Z,3.00
2018-01-19T06:47:54.271Z,2.75
2018-01-19T06:49:00.084Z,3.25
2018-01-19T06:50:05.820Z,3.05
2018-01-19T06:51:11.554Z,2.60
2018-01-19T06:52:18.069Z,4.07
2018-01-19T06:53:23.850Z,2.33
2018-01-19T06:54:30.351Z,2.58
2018-01-19T06:55:36.096Z,3.20
2018-01-19T06:56:41.826Z,2.75
2018-01-19T06:57:47.606Z,2.60
2018-01-19T06:58:53.548Z,2.20
2018-01-19T06:59:59.092Z,3.30
2018-01-19T07:01:06.730Z,2.62
2018-01-19T07:02:12.273Z,2.58
2018-01-19T07:03:18.074Z,2.45
2018-01-19T07:04:23.850Z,2.75
2018-01-19T07:05:29.579Z,2.45
2018-01-19T07:06:35.295Z,2.60
2018-01-19T07:07:41.084Z,2.75
2018-01-19T07:08:46.995Z,3.87
2018-01-19T07:09:53.869Z,3.47
2018-01-19T07:10:59.575Z,3.85
2018-01-19T07:12:04.973Z,2.90
2018-01-19T07:13:10.689Z,3.30
2018-01-19T07:14:16.422Z,3.03
2018-01-19T07:15:22.180Z,3.15
2018-01-19T07:16:27.896Z,3.92
2018-01-19T07:17:33.753Z,3.28
2018-01-19T07:18:39.467Z,3.60
2018-01-19T07:19:45.966Z,3.10
2018-01-19T07:20:51.723Z,3.33
2018-01-19T07:21:57.435Z,2.67
2018-01-19T07:23:03.170Z,2.72
2018-01-19T07:24:08.910Z,2.70
2018-01-19T07:25:14.647Z,2.85
2018-01-19T07:26:20.413Z,3.05
2018-01-19T07:27:26.142Z,2.47
2018-01-19T07:28:31.875Z,2.90
2018-01-19T07:29:37.620Z,3.10
2018-01-19T07:30:43.368Z,2.80
2018-01-19T07:31:49.156Z,2.97
2018-01-19T07:32:54.891Z,2.87
2018-01-19T07:34:00.625Z,2.55
2018-01-19T07:35:06.327Z,2.75
2018-01-19T07:36:12.059Z,2.97
2018-01-19T07:37:18.573Z,2.75
2018-01-19T07:38:24.299Z,3.15
2018-01-19T07:39:29.855Z,3.15
2018-01-19T07:40:35.573Z,3.08
2018-01-19T07:41:41.318Z,2.90
2018-01-19T07:42:46.887Z,3.50
2018-01-19T07:43:52.615Z,3.70
2018-01-19T07:44:58.150Z,3.58
2018-01-19T07:46:03.680Z,3.08
2018-01-19T07:47:09.419Z,3.47
2018-01-19T07:48:15.155Z,3.22
2018-01-19T07:49:20.683Z,3.65
2018-01-19T07:50:26.419Z,3.37
2018-01-19T07:51:32.123Z,4.03
2018-01-19T07:52:37.854Z,2.70
2018-01-19T07:53:44.366Z,3.42
2018-01-19T07:54:50.089Z,2.65
2018-01-19T07:55:55.822Z,2.40
2018-01-19T07:57:01.532Z,2.60
2018-01-19T07:58:08.032Z,2.90
2018-01-19T07:59:13.787Z,3.90
2018-01-19T08:00:19.495Z,2.90
2018-01-19T08:01:25.662Z,3.05
2018-01-19T08:02:31.398Z,2.97
2018-01-19T08:03:37.135Z,3.15
2018-01-19T08:04:43.135Z,3.55
2018-01-19T08:05:48.884Z,3.08
2018-01-19T08:06:54.644Z,3.05
2018-01-19T08:08:01.338Z,3.60
2018-01-19T08:09:06.407Z,8.25
2018-01-19T08:10:12.148Z,2.83
2018-01-19T08:11:17.873Z,3.10
2018-01-19T08:12:23.588Z,3.40
2018-01-19T08:13:29.300Z,3.60
2018-01-19T08:14:35.780Z,3.40
2018-01-19T08:15:41.565Z,3.10
2018-01-19T08:16:47.276Z,2.80
2018-01-19T08:17:52.987Z,3.05
2018-01-19T08:18:58.917Z,3.92
2018-01-19T08:20:04.895Z,2.92
2018-01-19T08:21:10.772Z,3.53
2018-01-19T08:22:19.285Z,3.67
2018-01-19T08:23:25.010Z,3.15
2018-01-19T08:24:30.741Z,3.47
2018-01-19T08:25:36.464Z,3.95
2018-01-19T08:26:42.227Z,3.03
2018-01-19T08:27:47.957Z,3.00
2018-01-19T08:28:53.670Z,4.18
2018-01-19T08:30:00.142Z,3.70
2018-01-19T08:31:05.885Z,3.40
2018-01-19T08:32:11.628Z,3.58
2018-01-19T08:33:17.351Z,3.28
2018-01-19T08:34:23.852Z,3.33
2018-01-19T08:35:29.837Z,3.35
2018-01-19T08:36:36.334Z,3.30
2018-01-19T08:37:42.091Z,4.05
2018-01-19T08:38:47.807Z,3.75
2018-01-19T08:39:53.540Z,3.28
2018-01-19T08:41:00.016Z,3.65
2018-01-19T08:42:05.769Z,3.62
2018-01-19T08:43:11.550Z,4.03
2018-01-19T08:44:17.283Z,3.00
2018-01-19T08:45:23.017Z,3.70
2018-01-19T08:46:28.750Z,3.58
2018-01-19T08:47:34.528Z,3.83
2018-01-19T08:48:41.054Z,3.92
2018-01-19T08:49:46.777Z,3.20
2018-01-19T08:50:52.489Z,3.35
2018-01-19T08:51:58.986Z,3.53
2018-01-19T08:53:04.734Z,3.78
2018-01-19T08:54:10.494Z,3.70
2018-01-19T08:55:16.422Z,3.55
2018-01-19T08:56:22.159Z,4.53
2018-01-19T08:57:27.881Z,4.15
2018-01-19T08:58:33.618Z,4.10
2018-01-19T08:59:39.414Z,4.00
2018-01-19T09:00:45.142Z,4.00
2018-01-19T09:01:50.859Z,4.18
2018-01-19T09:02:56.568Z,3.75
2018-01-19T09:04:02.292Z,3.75
2018-01-19T09:05:08.482Z,4.68
2018-01-19T09:06:14.218Z,4.55
2018-01-19T09:07:19.952Z,4.00
2018-01-19T09:08:25.669Z,4.18
2018-01-19T09:09:32.161Z,4.65
2018-01-19T09:10:37.978Z,4.32
2018-01-19T09:11:43.714Z,4.43
2018-01-19T09:12:49.499Z,3.47
2018-01-19T09:13:56.158Z,4.43
2018-01-19T09:15:01.890Z,4.55
2018-01-19T09:16:07.654Z,4.07
2018-01-19T09:17:13.395Z,3.80
2018-01-19T09:18:19.107Z,3.55
2018-01-19T09:19:24.864Z,4.43
2018-01-19T09:20:30.580Z,3.80
2018-01-19T09:21:36.332Z,3.78
2018-01-19T09:22:42.055Z,4.20
2018-01-19T09:23:47.763Z,3.67
2018-01-19T09:24:53.943Z,5.47
2018-01-19T09:25:59.683Z,4.10
2018-01-19T09:27:06.189Z,3.62
2018-01-19T09:28:11.917Z,3.75
2018-01-19T09:29:17.688Z,4.55
2018-01-19T09:30:23.575Z,4.10
2018-01-19T09:31:29.280Z,4.00
2018-01-19T09:32:35.033Z,3.60
2018-01-19T09:33:41.523Z,4.62
2018-01-19T09:34:47.231Z,4.57
2018-01-19T09:35:52.968Z,4.37
2018-01-19T09:36:59.700Z,3.85
2018-01-19T09:38:05.496Z,4.40
2018-01-19T09:39:11.240Z,4.15
2018-01-19T09:40:16.957Z,3.70
2018-01-19T09:41:23.435Z,3.70
2018-01-19T09:42:29.257Z,3.55
2018-01-19T09:43:35.614Z,3.62
2018-01-19T09:44:42.099Z,4.50
2018-01-19T09:45:47.811Z,4.28
2018-01-19T09:46:53.550Z,3.90
2018-01-19T09:47:59.328Z,3.85
2018-01-19T09:49:05.095Z,3.70
2018-01-19T09:50:10.858Z,3.67
2018-01-19T09:51:16.594Z,4.15
2018-01-19T09:52:22.355Z,4.55
2018-01-19T09:53:28.076Z,4.72
2018-01-19T09:54:33.816Z,3.55
2018-01-19T09:55:39.547Z,4.82
2018-01-19T09:56:45.070Z,4.00
2018-01-19T09:57:50.815Z,4.28
2018-01-19T09:58:56.534Z,3.30
2018-01-19T10:00:03.063Z,3.78
2018-01-19T10:01:08.785Z,7.68
2018-01-19T10:02:14.511Z,4.12
2018-01-19T10:03:20.264Z,3.80
2018-01-19T10:04:25.984Z,3.78
2018-01-19T10:05:31.743Z,3.92
2018-01-19T10:06:37.464Z,3.60
2018-01-19T10:07:43.294Z,5.18
2018-01-19T10:08:49.035Z,3.90
2018-01-19T10:09:54.564Z,3.75
2018-01-19T10:11:00.352Z,3.80
2018-01-19T10:12:05.828Z,3.72
2018-01-19T10:13:11.565Z,4.25
2018-01-19T10:14:18.065Z,4.20
2018-01-19T10:15:23.799Z,4.05
2018-01-19T10:16:29.553Z,3.72
2018-01-19T10:17:35.278Z,4.28
2018-01-19T10:18:41.014Z,4.90
2018-01-19T10:19:46.746Z,3.72
2018-01-19T10:20:52.476Z,3.95
2018-01-19T10:21:58.358Z,4.37
2018-01-19T10:23:03.958Z,3.87
2018-01-19T10:24:09.677Z,4.35
2018-01-19T10:25:16.159Z,4.78
2018-01-19T10:26:21.887Z,4.25
2018-01-19T10:27:28.446Z,3.30
2018-01-19T10:28:34.929Z,3.60
2018-01-19T10:29:40.772Z,3.67
2018-01-19T10:30:46.539Z,4.15
2018-01-19T10:31:52.298Z,3.35
2018-01-19T10:32:58.054Z,3.75
2018-01-19T10:34:04.594Z,3.05
2018-01-19T10:35:10.318Z,3.42
2018-01-19T10:36:16.127Z,2.95
2018-01-19T10:37:21.873Z,3.17
2018-01-19T10:38:27.656Z,3.15
2018-01-19T10:39:33.382Z,3.45
2018-01-19T10:40:39.106Z,3.90
2018-01-19T10:41:44.844Z,4.07
2018-01-19T10:42:50.601Z,3.92
2018-01-19T10:43:56.345Z,3.83
2018-01-19T10:45:02.088Z,3.35
2018-01-19T10:46:07.826Z,3.60
2018-01-19T10:47:13.545Z,4.07
2018-01-19T10:48:19.322Z,4.03
2018-01-19T10:49:25.150Z,4.30
2018-01-19T10:50:30.878Z,4.30
2018-01-19T10:51:36.616Z,4.45
2018-01-19T10:52:42.645Z,3.67
2018-01-19T10:53:49.145Z,3.67
2018-01-19T10:54:55.155Z,3.40
2018-01-19T10:56:00.893Z,4.28
2018-01-19T10:57:06.618Z,4.20
2018-01-19T10:58:12.360Z,4.57
2018-01-19T10:59:18.640Z,3.45
2018-01-19T11:00:24.416Z,4.10
2018-01-19T11:01:30.152Z,3.90
2018-01-19T11:02:35.892Z,3.80
2018-01-19T11:03:41.630Z,3.78
2018-01-19T11:04:47.369Z,4.40
2018-01-19T11:05:53.110Z,4.82
2018-01-19T11:06:58.848Z,5.50
2018-01-19T11:08:04.585Z,4.57
2018-01-19T11:09:10.308Z,4.30
2018-01-19T11:10:16.024Z,4.35
2018-01-19T11:11:22.539Z,4.25
2018-01-19T11:12:28.253Z,4.00
2018-01-19T11:13:34.228Z,4.47
2018-01-19T11:14:40.029Z,4.82
2018-01-19T11:15:46.490Z,4.97
2018-01-19T11:16:52.228Z,4.62
2018-01-19T11:17:57.947Z,4.62
2018-01-19T11:19:04.251Z,4.20
2018-01-19T11:20:09.968Z,6.03
2018-01-19T11:21:16.452Z,5.75
2018-01-19T11:22:22.205Z,5.20
2018-01-19T11:23:27.955Z,4.20
2018-01-19T11:24:33.684Z,4.40
2018-01-19T11:25:39.395Z,5.00
2018-01-19T11:26:45.115Z,5.12
2018-01-19T11:27:51.676Z,4.70
2018-01-19T11:28:58.182Z,5.80
2018-01-19T11:30:03.919Z,4.55
2018-01-19T11:31:09.750Z,4.75
2018-01-19T11:32:15.468Z,5.55
2018-01-19T11:33:21.994Z,5.60
2018-01-19T11:34:27.744Z,4.53
2018-01-19T11:35:34.993Z,5.50
2018-01-19T11:36:40.719Z,5.20
2018-01-19T11:37:46.464Z,5.78
2018-01-19T11:38:52.277Z,5.15
2018-01-19T11:39:58.164Z,5.00
2018-01-19T11:41:03.894Z,6.25
2018-01-19T11:42:09.628Z,5.57
2018-01-19T11:43:15.357Z,6.53
2018-01-19T11:44:21.417Z,5.87
2018-01-19T11:45:27.128Z,6.18
2018-01-19T11:46:32.950Z,6.05
2018-01-19T11:47:38.703Z,6.87
2018-01-19T11:48:45.226Z,7.78
2018-01-19T11:49:50.988Z,6.30
2018-01-19T11:50:57.456Z,6.53
2018-01-19T11:52:03.967Z,5.65
2018-01-19T11:53:09.703Z,5.22
2018-01-19T11:54:15.418Z,5.50
2018-01-19T11:55:21.717Z,6.53
2018-01-19T11:56:27.484Z,6.45
2018-01-19T11:57:33.976Z,5.55
2018-01-19T11:58:39.715Z,5.65
2018-01-19T11:59:46.193Z,6.35
2018-01-19T12:00:52.069Z,6.10
2018-01-19T12:01:57.602Z,6.72
2018-01-19T12:03:03.319Z,6.90
2018-01-19T12:04:09.829Z,5.80
2018-01-19T12:05:15.610Z,5.50
2018-01-19T12:06:21.371Z,5.20
2018-01-19T12:07:27.102Z,5.45
2018-01-19T12:08:32.880Z,6.22
2018-01-19T12:09:38.593Z,5.32
2018-01-19T12:10:44.327Z,5.30
2018-01-19T12:11:50.135Z,5.32
2018-01-19T12:12:56.623Z,6.10
2018-01-19T12:14:02.359Z,5.47
2018-01-19T12:15:08.096Z,4.72
2018-01-19T12:16:13.865Z,5.18
2018-01-19T12:17:19.929Z,6.03
2018-01-19T12:18:25.650Z,5.20
2018-01-19T12:19:31.363Z,5.55
2018-01-19T12:20:37.072Z,4.95
2018-01-19T12:21:43.582Z,5.65
2018-01-19T12:22:49.324Z,5.82
2018-01-19T12:23:55.092Z,5.15
2018-01-19T12:25:00.826Z,5.07
2018-01-19T12:26:06.546Z,4.95
2018-01-19T12:27:12.290Z,5.50
2018-01-19T12:28:18.055Z,4.30
2018-01-19T12:29:23.779Z,6.30
2018-01-19T12:30:29.523Z,5.30
2018-01-19T12:31:35.236Z,5.72
2018-01-19T12:32:41.104Z,6.25
2018-01-19T12:33:46.933Z,4.80
2018-01-19T12:34:52.782Z,6.72
2018-01-19T12:35:58.517Z,6.20
2018-01-19T12:37:04.257Z,6.75
2018-01-19T12:38:10.042Z,6.43
2018-01-19T12:39:16.578Z,5.40
2018-01-19T12:40:22.432Z,6.00
2018-01-19T12:41:29.861Z,5.78
2018-01-19T12:42:35.590Z,6.37
2018-01-19T12:43:42.260Z,6.65
2018-01-19T12:44:48.031Z,5.65
2018-01-19T12:45:53.749Z,5.68
2018-01-19T12:46:59.480Z,5.10
2018-01-19T12:48:06.033Z,6.22
2018-01-19T12:49:12.652Z,5.90
2018-01-19T12:50:18.795Z,4.85
2018-01-19T12:51:24.523Z,4.75
2018-01-19T12:52:30.243Z,4.60
2018-01-19T12:53:35.963Z,4.25
2018-01-19T12:54:42.471Z,5.43
2018-01-19T12:55:48.233Z,4.85
2018-01-19T12:56:53.959Z,5.50
2018-01-19T12:57:59.682Z,4.43
2018-01-19T12:59:05.422Z,5.03
2018-01-19T13:00:11.159Z,4.97
2018-01-19T13:01:16.911Z,4.95
2018-01-19T13:02:22.628Z,4.55
2018-01-19T13:03:28.197Z,4.65
2018-01-19T13:04:33.941Z,4.70
2018-01-19T13:05:39.752Z,4.97
2018-01-19T13:06:45.341Z,5.12
2018-01-19T13:07:51.211Z,3.90
2018-01-19T13:08:57.684Z,4.72
2018-01-19T13:10:03.457Z,4.72
2018-01-19T13:11:09.194Z,4.45
2018-01-19T13:12:14.968Z,4.10
2018-01-19T13:13:20.728Z,4.25
2018-01-19T13:14:27.280Z,4.30
2018-01-19T13:15:34.001Z,4.43
2018-01-19T13:16:39.873Z,4.75
2018-01-19T13:17:45.630Z,5.40
2018-01-19T13:18:52.134Z,4.37
2018-01-19T13:19:57.902Z,3.70
2018-01-19T13:21:03.616Z,5.00
2018-01-19T13:22:09.324Z,3.85
2018-01-19T13:23:15.864Z,4.40
2018-01-19T13:24:21.596Z,4.40
2018-01-19T13:25:28.119Z,4.00
2018-01-19T13:26:34.854Z,4.30
2018-01-19T13:27:41.352Z,4.28
2018-01-19T13:28:47.101Z,4.22
2018-01-19T13:29:52.838Z,4.93
2018-01-19T13:30:58.249Z,4.37
2018-01-19T13:32:04.009Z,4.87
2018-01-19T13:33:09.751Z,5.30
2018-01-19T13:34:15.621Z,4.78
2018-01-19T13:35:22.245Z,4.30
2018-01-19T13:36:28.030Z,4.82
2018-01-19T13:37:33.967Z,4.95
2018-01-19T13:38:39.685Z,5.00
2018-01-19T13:39:45.487Z,4.70
2018-01-19T13:40:51.991Z,5.10
2018-01-19T13:41:57.738Z,4.53
2018-01-19T13:43:03.579Z,5.35
2018-01-19T13:44:09.311Z,5.40
2018-01-19T13:45:15.268Z,5.03
2018-01-19T13:46:22.792Z,5.07
2018-01-19T13:47:28.611Z,5.57
2018-01-19T13:48:34.153Z,5.15
2018-01-19T13:49:39.904Z,5.70
2018-01-19T13:50:45.879Z,5.50
2018-01-19T13:51:51.635Z,6.40
2018-01-19T13:52:57.371Z,5.78
2018-01-19T13:54:03.108Z,5.87
2018-01-19T13:55:08.833Z,5.12
2018-01-19T13:56:15.383Z,6.37
2018-01-19T13:57:22.671Z,5.80
2018-01-19T13:58:29.166Z,5.75
2018-01-19T13:59:34.923Z,5.70
2018-01-19T14:00:40.702Z,5.35
2018-01-19T14:01:47.236Z,5.85
2018-01-19T14:02:52.965Z,5.35
2018-01-19T14:03:58.722Z,5.80
2018-01-19T14:05:04.451Z,6.62
2018-01-19T14:06:10.218Z,6.00
2018-01-19T14:07:16.204Z,6.32
2018-01-19T14:08:21.970Z,5.18
2018-01-19T14:09:27.712Z,5.68
2018-01-19T14:10:33.432Z,6.00
2018-01-19T14:11:39.326Z,5.97
2018-01-19T14:12:45.086Z,5.10
2018-01-19T14:13:51.607Z,5.70
2018-01-19T14:14:57.437Z,5.47
2018-01-19T14:16:04.476Z,5.45
2018-01-19T14:17:10.320Z,4.78
2018-01-19T14:18:16.450Z,4.55
2018-01-19T14:19:22.950Z,5.18
2018-01-19T14:20:28.795Z,4.35
2018-01-19T14:21:34.708Z,5.70
2018-01-19T14:22:40.525Z,4.55
2018-01-19T14:23:47.614Z,4.22
2018-01-19T14:24:53.637Z,4.87
2018-01-19T14:26:00.216Z,4.70
2018-01-19T14:27:09.334Z,4.70
2018-01-19T14:28:15.901Z,4.97
2018-01-19T14:29:22.534Z,5.10
2018-01-19T14:30:29.215Z,4.87
2018-01-19T14:31:35.796Z,5.30
2018-01-19T14:32:42.382Z,4.40
2018-01-19T14:33:49.230Z,4.37
2018-01-19T14:34:55.768Z,4.53
2018-01-19T14:36:01.518Z,3.95
2018-01-19T14:37:08.097Z,5.18